Portada
METAR-TAF:

METAR-TAF

Aeroports :

Koksijde, Bèlgica

latitud: 51-05N, longitud: 002-39E, altitud: 4 m

Observació

L'informe es va fer fa 16 minuts, a les 01:25 UTC
Vent 8 kt del Nord-Est
Temperatura 4°C
Humitat 75%
Pressió 1024 hPa
Visibilitat 10 km o més

METAR: EBFN 220125Z AUTO 05008KT 9999 NCD 04/M00 Q1024 BLU

Hora: 03:41 (01:41 UTC)

Pronòstic

L'informe es va fer fa 10 hores i 0 minuts, a les 15:41 UTC
Pronòstic vàlid del 21 a les 19 UTC al 22 a les 07 UTC
Vent 16 kt del Nord/Nord-Est
Visibilitat 10 km o més
Escasses núvols a una alçada de 1500 ft
Evolucionant progressivament
l' 21 a les 20 UTC al 21 a les 22 UTC
Cel clar
Evolucionant progressivament
l' 22 a les 00 UTC al 22 a les 02 UTC
Vent 10 kt del Est/Nord-Est
Temporalment
l' 22 a les 03 UTC al 22 a les 07 UTC
Vent 7 kt del Est/Nord-Est
Visibilitat: 6000 m
Escasses núvols a una alçada de 2000 ft

TAF: EBFN 211541Z 2119/2207 03016KT 9999 FEW015 BECMG 2120/2122 SKC BECMG 2200/2202 06010KT TEMPO 2203/2207 06007KT 6000 FEW020

Observacions i pronòstics meteorològics de més de 4000 aeroports (METAR i TAF).

Les estacions disponibles són els punts grocs i vermells al mapa.

Posi el ratolí al punt desitjat per veure el nom de l'estació.

Feu clic per veure les observacions i els pronòstics meteorològics.

Per canviar el mapa: feu clic els botons verds amb una creu de color negre per apropar; al botó verd amb un guió per allunyar la imatge; o en les fletxes verdes per a mapes adjacents.


METAR-TAF: